Time;durP1;ratioP1;P1;durP2;ratioP2;P2;SDS_P1;SDS_P2;PMS_P1;PMS_P2;Temp;Humidity;BMP_temperature;BMP_pressure;BME280_temperature;BME280_humidity;BME280_pressure;Samples;Min_cycle;Max_cycle;Signal;HPM_P1;HPM_P2
2022/02/13 00:01:00;;;;;;;6.97;3.93;;;;;;;-0.32;66.70;99561.56;5097518;28;40325;-82
2022/02/13 00:03:29;;;;;;;8.13;3.83;;;;;;;-0.31;66.63;99568.47;5092304;28;43278;-83
2022/02/13 00:05:57;;;;;;;6.43;4.57;;;;;;;-0.45;66.62;99550.38;5091709;28;42304;-82
2022/02/13 00:08:25;;;;;;;5.33;2.80;;;;;;;-0.36;66.73;99571.09;5075507;28;39018;-83
2022/02/13 00:10:52;;;;;;;6.43;2.90;;;;;;;-0.47;66.71;99559.91;5093033;28;41683;-83
2022/02/13 00:13:20;;;;;;;7.67;5.07;;;;;;;-0.43;66.72;99575.50;5074915;28;41457;-83
2022/02/13 00:15:48;;;;;;;14.03;6.07;;;;;;;-0.50;66.45;99559.97;5074924;28;43317;-83
2022/02/13 00:18:16;;;;;;;7.73;4.00;;;;;;;-0.50;66.86;99572.97;5091935;28;40179;-83
2022/02/13 00:20:45;;;;;;;5.73;3.60;;;;;;;-0.51;66.58;99574.72;5074762;28;40709;-82
2022/02/13 00:23:13;;;;;;;7.80;4.07;;;;;;;-0.57;67.38;99560.84;5092027;28;42926;-83
2022/02/13 00:25:42;;;;;;;7.20;3.97;;;;;;;-0.66;67.69;99546.19;5092828;28;41885;-82
2022/02/13 00:28:13;;;;;;;4.10;3.70;;;;;;;-0.57;67.07;99564.31;5093178;28;39928;-84
2022/02/13 00:30:46;;;;;;;10.80;4.03;;;;;;;-0.70;67.37;99548.81;5074565;28;41998;-83
2022/02/13 00:33:14;;;;;;;6.13;3.10;;;;;;;-0.61;67.72;99560.00;5092052;28;42791;-83
2022/02/13 00:35:43;;;;;;;4.70;3.17;;;;;;;-0.62;68.61;99545.31;5092757;28;42207;-82
2022/02/13 00:38:12;;;;;;;5.30;4.17;;;;;;;-0.63;68.29;99546.19;5092079;28;39981;-83
2022/02/13 00:40:39;;;;;;;7.20;4.03;;;;;;;-0.64;68.23;99544.44;5074873;28;40744;-83
2022/02/13 00:43:07;;;;;;;5.47;3.40;;;;;;;-0.78;68.19;99520.25;5126202;27;43540;-82
2022/02/13 00:45:35;;;;;;;6.73;3.60;;;;;;;-0.64;68.38;99544.44;5091557;28;43907;-83
2022/02/13 00:48:02;;;;;;;7.50;4.03;;;;;;;-0.66;68.01;99540.13;5074614;28;39141;-83
2022/02/13 00:50:30;;;;;;;7.73;3.97;;;;;;;-1.12;67.99;99478.88;5074565;28;43169;-82
2022/02/13 00:52:58;;;;;;;5.10;3.77;;;;;;;-0.72;67.90;99544.47;5091670;28;42848;-82
2022/02/13 00:55:27;;;;;;;3.83;3.53;;;;;;;-0.73;67.94;99549.69;5074498;28;42313;-83
2022/02/13 00:57:55;;;;;;;4.50;3.20;;;;;;;-0.89;68.85;99507.34;5074569;28;38952;-83
2022/02/13 01:00:22;;;;;;;7.93;3.77;;;;;;;-0.78;68.45;99531.53;5101026;28;41760;-82
2022/02/13 01:02:50;;;;;;;5.50;3.80;;;;;;;-0.89;68.47;99522.06;5106975;28;42778;-82
2022/02/13 01:05:18;;;;;;;4.77;2.80;;;;;;;-0.94;68.35;99508.22;5089529;28;41148;-82
2022/02/13 01:07:46;;;;;;;8.03;4.63;;;;;;;-0.97;68.34;99508.22;5094690;28;40418;-82
2022/02/13 01:10:14;;;;;;;5.90;3.30;;;;;;;-0.98;67.98;99506.50;5094954;28;40892;-82
2022/02/13 01:12:43;;;;;;;6.20;3.90;;;;;;;-0.91;68.23;99521.22;5094612;28;41781;-82
2022/02/13 01:15:11;;;;;;;7.27;2.73;;;;;;;-0.94;68.32;99514.28;5094523;28;41108;-82
2022/02/13 01:17:39;;;;;;;4.20;3.20;;;;;;;-0.97;68.58;99516.88;5111747;28;41060;-82
2022/02/13 01:20:08;;;;;;;4.27;3.53;;;;;;;-1.06;68.32;99500.50;5111696;28;41608;-82
2022/02/13 01:22:35;;;;;;;7.90;4.93;;;;;;;-1.19;68.77;99492.75;5111381;28;42389;-82
2022/02/13 01:25:05;;;;;;;7.17;4.10;;;;;;;-1.03;68.77;99508.28;5112761;28;42178;-82
2022/02/13 01:27:32;;;;;;;5.60;3.30;;;;;;;-1.04;69.10;99514.34;5094590;28;41258;-82
2022/02/13 01:30:04;;;;;;;5.80;2.87;;;;;;;-1.04;69.12;99516.94;5113984;27;42761;-82
2022/02/13 01:32:32;;;;;;;6.67;3.23;;;;;;;-1.20;68.92;99484.97;5097977;28;42835;-82
2022/02/13 01:35:00;;;;;;;6.13;3.53;;;;;;;-1.10;68.86;99513.50;5097762;28;41940;-82
2022/02/13 01:37:27;;;;;;;7.37;5.13;;;;;;;-1.12;68.87;99512.66;5114982;28;40092;-82
2022/02/13 01:39:55;;;;;;;7.03;3.67;;;;;;;-1.15;70.01;99514.41;5098036;28;40797;-82
2022/02/13 01:42:23;;;;;;;3.80;3.40;;;;;;;-1.20;69.21;99510.94;5097658;28;41970;-82
2022/02/13 01:44:52;;;;;;;9.90;4.57;;;;;;;-1.20;69.34;99510.94;5097735;28;42840;-82
2022/02/13 01:47:22;;;;;;;5.37;3.27;;;;;;;-1.25;69.15;99508.41;5097503;28;39752;-82
2022/02/13 01:49:49;;;;;;;5.70;4.07;;;;;;;-1.19;69.38;99517.88;5114763;28;40914;-81
2022/02/13 01:52:17;;;;;;;6.67;3.20;;;;;;;-1.33;69.16;99494.56;5114504;28;41863;-81
2022/02/13 01:54:45;;;;;;;6.77;2.97;;;;;;;-1.23;69.30;99504.03;5097728;28;41233;-82
2022/02/13 01:57:12;;;;;;;7.40;3.67;;;;;;;-1.25;69.23;99505.81;5097137;28;38886;-81
2022/02/13 01:59:41;;;;;;;5.87;3.57;;;;;;;-1.40;69.25;99482.47;5114986;28;41824;-81
2022/02/13 02:02:08;;;;;;;8.70;3.90;;;;;;;-1.39;69.24;99484.22;5114391;28;42938;-82
2022/02/13 02:04:37;;;;;;;5.43;2.77;;;;;;;-1.29;69.21;99501.47;5114528;28;42292;-82
2022/02/13 02:07:06;;;;;;;5.90;3.00;;;;;;;-1.31;69.33;99497.16;5097270;28;40696;-82
2022/02/13 02:09:33;;;;;;;4.10;3.60;;;;;;;-1.47;69.28;99479.03;5097752;28;42822;-81
2022/02/13 02:12:03;;;;;;;8.17;3.10;;;;;;;-1.35;69.37;99500.63;5097513;28;42660;-81
2022/02/13 02:14:32;;;;;;;4.63;3.57;;;;;;;-1.43;69.67;99492.88;5106866;28;42823;-81
2022/02/13 02:17:00;;;;;;;5.87;2.83;;;;;;;-1.48;70.22;99473.84;5094713;28;38724;-81
2022/02/13 02:19:28;;;;;;;5.23;3.40;;;;;;;-1.51;70.46;99466.09;5076849;28;43490;-81
2022/02/13 02:21:57;;;;;;;8.00;5.47;;;;;;;-1.41;70.34;99491.13;5093562;28;42738;-81
2022/02/13 02:24:26;;;;;;;3.83;3.10;;;;;;;-1.43;70.16;99492.88;5094039;28;43462;-81
2022/02/13 02:26:53;;;;;;;8.93;4.10;;;;;;;-1.55;70.23;99477.34;5076823;28;39104;-81
2022/02/13 02:29:21;;;;;;;5.73;3.53;;;;;;;-1.47;70.04;99496.34;5076965;28;41867;-80
2022/02/13 02:31:48;;;;;;;4.90;3.47;;;;;;;-1.59;70.03;99470.44;5093704;28;41807;-81
2022/02/13 02:34:16;;;;;;;8.07;3.80;;;;;;;-1.49;70.08;99487.72;5076879;28;42746;-81
2022/02/13 02:36:43;;;;;;;5.83;3.53;;;;;;;-1.65;69.86;99460.06;5093465;28;40632;-80
2022/02/13 02:39:11;;;;;;;3.37;2.83;;;;;;;-1.53;69.96;99486.88;5093856;28;41967;-80
2022/02/13 02:41:40;;;;;;;5.37;3.40;;;;;;;-1.54;69.86;99494.66;5093108;28;42962;-81
2022/02/13 02:44:07;;;;;;;5.67;3.27;;;;;;;-1.65;69.86;99473.06;5076682;28;41141;-80
2022/02/13 02:46:35;;;;;;;5.47;3.97;;;;;;;-1.70;70.36;99462.69;5093228;28;40851;-81
2022/02/13 02:49:02;;;;;;;5.53;4.27;;;;;;;-1.71;70.12;99449.69;5093488;28;40435;-81
2022/02/13 02:51:30;;;;;;;13.67;4.20;;;;;;;-1.57;70.26;99474.75;5093290;28;42851;-80
2022/02/13 02:53:57;;;;;;;6.73;3.33;;;;;;;-1.71;70.86;99439.31;5093436;28;42589;-80
2022/02/13 02:56:25;;;;;;;5.63;3.17;;;;;;;-1.55;71.01;99466.97;5093238;28;39929;-80
2022/02/13 02:58:54;;;;;;;8.63;4.23;;;;;;;-1.61;71.09;99459.22;5076243;28;40499;-80
2022/02/13 03:01:21;;;;;;;6.40;4.27;;;;;;;-1.55;71.84;99466.97;5075716;28;42936;-80
2022/02/13 03:03:49;;;;;;;4.43;3.23;;;;;;;-1.56;71.41;99465.22;5110027;28;41145;-80
2022/02/13 03:06:16;;;;;;;7.37;4.50;;;;;;;-1.56;71.56;99457.44;5075736;28;41322;-80
2022/02/13 03:08:44;;;;;;;6.03;3.70;;;;;;;-1.56;71.38;99462.63;5092821;28;42133;-80
2022/02/13 03:11:11;;;;;;;5.43;3.50;;;;;;;-1.55;71.41;99459.16;5092712;28;42548;-80
2022/02/13 03:13:40;;;;;;;7.63;2.73;;;;;;;-1.57;71.72;99447.91;5076404;28;41101;-80
2022/02/13 03:16:09;;;;;;;6.57;3.97;;;;;;;-1.55;71.89;99459.16;5092956;28;38885;-80
2022/02/13 03:18:37;;;;;;;6.27;3.60;;;;;;;-1.56;71.86;99454.84;5093027;28;41723;-80
2022/02/13 03:21:05;;;;;;;5.27;4.00;;;;;;;-1.71;71.60;99431.53;5092586;28;42967;-80
2022/02/13 03:23:32;;;;;;;6.63;3.63;;;;;;;-1.59;71.55;99452.25;5095109;28;42736;-80
2022/02/13 03:26:00;;;;;;;8.10;5.93;;;;;;;-1.59;71.68;99450.50;5101912;28;40623;-80
2022/02/13 03:28:27;;;;;;;6.33;4.57;;;;;;;-1.60;72.00;99453.13;5075851;28;41083;-80
2022/02/13 03:30:54;;;;;;;7.80;3.23;;;;;;;-1.64;71.53;99452.28;5093566;28;42683;-80
2022/02/13 03:33:23;;;;;;;6.90;3.47;;;;;;;-1.61;71.99;99448.81;5092783;28;41264;-80
2022/02/13 03:35:51;;;;;;;7.03;3.37;;;;;;;-1.62;72.01;99442.75;5091967;28;40944;-80
2022/02/13 03:38:19;;;;;;;6.30;4.43;;;;;;;-1.62;71.96;99444.50;5075682;28;40584;-79
2022/02/13 03:40:46;;;;;;;9.23;5.17;;;;;;;-1.62;71.71;99444.50;5092184;28;43805;-79
2022/02/13 03:43:14;;;;;;;4.93;3.57;;;;;;;-1.75;72.00;99427.25;5093552;28;42947;-79
2022/02/13 03:45:41;;;;;;;7.37;4.03;;;;;;;-1.65;71.95;99434.13;5075123;28;41520;-79
2022/02/13 03:48:09;;;;;;;5.17;3.77;;;;;;;-1.64;71.99;99435.84;5092500;28;41707;-80
2022/02/13 03:50:38;;;;;;;6.13;3.93;;;;;;;-1.67;71.92;99430.66;5075276;28;41884;-79
2022/02/13 03:53:05;;;;;;;6.40;3.90;;;;;;;-1.81;72.17;99405.59;5091143;28;41580;-79
2022/02/13 03:55:33;;;;;;;6.70;3.80;;;;;;;-1.79;71.97;99415.13;5074988;28;40264;-79
2022/02/13 03:58:01;;;;;;;5.63;3.53;;;;;;;-1.73;72.11;99435.88;5091871;28;40321;-79
2022/02/13 04:00:28;;;;;;;7.13;3.17;;;;;;;-1.72;72.18;99438.44;5071433;28;44476;-79
2022/02/13 04:02:56;;;;;;;5.13;3.03;;;;;;;-1.77;71.82;99436.75;5072617;28;43166;-79
2022/02/13 04:05:24;;;;;;;9.03;3.60;;;;;;;-1.83;71.83;99435.91;5088652;28;39986;-79
2022/02/13 04:07:53;;;;;;;7.03;4.37;;;;;;;-1.83;71.75;99443.69;5071399;28;40743;-79
2022/02/13 04:10:21;;;;;;;3.37;2.73;;;;;;;-1.86;72.08;99435.94;5071198;28;42853;-80
2022/02/13 04:12:49;;;;;;;6.37;3.40;;;;;;;-1.92;71.73;99441.13;5072488;28;43241;-79
2022/02/13 04:15:16;;;;;;;3.40;2.80;;;;;;;-1.99;71.64;99420.41;5071622;28;39432;-80
2022/02/13 04:17:44;;;;;;;4.17;2.70;;;;;;;-1.93;71.92;99431.63;5088013;28;40811;-79
2022/02/13 04:20:12;;;;;;;3.20;2.90;;;;;;;-1.98;71.81;99428.16;5054427;28;41710;-79
2022/02/13 04:22:40;;;;;;;5.33;4.10;;;;;;;-1.99;71.85;99425.59;5054593;28;43600;-79
2022/02/13 04:25:10;;;;;;;6.33;3.53;;;;;;;-1.98;72.20;99433.34;5071196;28;40624;-79
2022/02/13 04:27:38;;;;;;;5.23;2.53;;;;;;;-1.96;71.91;99429.03;5071123;28;41639;-79
2022/02/13 04:30:07;;;;;;;9.53;3.07;;;;;;;-1.96;71.96;99426.44;5071077;28;42215;-79
2022/02/13 04:32:35;;;;;;;5.70;3.97;;;;;;;-1.95;72.41;99424.69;5100013;28;42634;-79
2022/02/13 04:35:02;;;;;;;5.20;4.23;;;;;;;-2.13;72.37;99398.81;5054185;28;38952;-79
2022/02/13 04:37:30;;;;;;;4.00;3.60;;;;;;;-2.02;72.29;99418.69;5071003;28;42762;-78
2022/02/13 04:39:58;;;;;;;3.40;2.67;;;;;;;-2.09;72.18;99411.75;5070957;28;44138;-78
2022/02/13 04:42:26;;;;;;;8.03;2.93;;;;;;;-2.01;72.10;99429.94;5070955;28;42336;-79
2022/02/13 04:44:54;;;;;;;4.17;3.03;;;;;;;-1.99;71.83;99433.38;5071062;28;39023;-78
2022/02/13 04:47:22;;;;;;;5.97;3.03;;;;;;;-2.02;72.11;99431.66;5070117;28;42294;-79
2022/02/13 04:49:50;;;;;;;9.57;4.13;;;;;;;-2.04;71.91;99430.78;5070605;28;43021;-79
2022/02/13 04:52:18;;;;;;;6.17;2.50;;;;;;;-2.06;71.75;99424.72;5053719;28;41234;-79
2022/02/13 04:54:45;;;;;;;4.67;3.03;;;;;;;-2.07;71.78;99429.94;5071892;28;40963;-79
2022/02/13 04:57:13;;;;;;;5.27;3.67;;;;;;;-2.09;71.79;99431.66;5104235;28;41600;-79
2022/02/13 04:59:42;;;;;;;3.57;2.70;;;;;;;-2.10;71.82;99419.56;5108537;27;42822;-78
2022/02/13 05:02:10;;;;;;;5.90;2.97;;;;;;;-2.16;71.54;99415.25;5073718;28;41019;-79
2022/02/13 05:04:37;;;;;;;5.13;2.17;;;;;;;-2.14;71.89;99408.34;5094263;28;40325;-79
2022/02/13 05:07:06;;;;;;;5.33;2.47;;;;;;;-2.14;72.92;99407.47;5094448;28;40796;-79
2022/02/13 05:09:34;;;;;;;5.60;3.60;;;;;;;-2.17;72.98;99403.16;5094536;28;42818;-79
2022/02/13 05:12:01;;;;;;;6.73;3.17;;;;;;;-2.17;72.62;99408.34;5077118;28;41226;-78
2022/02/13 05:14:29;;;;;;;5.03;3.37;;;;;;;-2.29;72.63;99395.41;5094382;28;39850;-78
2022/02/13 05:16:58;;;;;;;5.50;3.40;;;;;;;-2.18;72.64;99407.47;5077000;28;40677;-78
2022/02/13 05:19:25;;;;;;;4.63;3.47;;;;;;;-2.17;72.58;99405.75;5094168;28;43740;-78
2022/02/13 05:21:57;;;;;;;3.30;2.80;;;;;;;-2.19;72.89;99390.19;5095283;28;42458;-78
2022/02/13 05:24:25;;;;;;;4.40;2.63;;;;;;;-2.21;72.94;99378.94;5094438;28;38781;-78
2022/02/13 05:26:52;;;;;;;3.13;2.60;;;;;;;-2.15;72.84;99393.63;5093749;28;41774;-79
2022/02/13 05:29:20;;;;;;;4.07;2.43;;;;;;;-2.15;72.70;99391.03;5095343;28;43752;-78
2022/02/13 05:31:47;;;;;;;4.37;2.67;;;;;;;-2.17;72.67;99392.78;5095394;28;42204;-79
2022/02/13 05:34:17;;;;;;;5.20;2.70;;;;;;;-2.18;72.41;99376.34;5077015;28;40173;-77
2022/02/13 05:36:45;;;;;;;5.73;2.93;;;;;;;-2.19;72.23;99385.00;5093403;28;43225;-78
2022/02/13 05:39:12;;;;;;;4.77;2.93;;;;;;;-2.21;72.40;99381.53;5093958;28;42550;-79
2022/02/13 05:41:40;;;;;;;4.60;3.43;;;;;;;-2.21;72.35;99385.84;5088795;28;41274;-77
2022/02/13 05:44:08;;;;;;;8.40;2.80;;;;;;;-2.22;72.21;99384.13;5094002;28;41134;-79
2022/02/13 05:46:36;;;;;;;3.33;2.63;;;;;;;-2.26;72.25;99382.44;5093410;28;42530;-79
2022/02/13 05:49:04;;;;;;;3.43;2.33;;;;;;;-2.27;72.27;99373.78;5076786;28;42980;-79
2022/02/13 05:51:33;;;;;;;6.27;3.37;;;;;;;-2.37;72.07;99369.50;5076675;28;42583;-78
2022/02/13 05:54:00;;;;;;;2.40;2.30;;;;;;;-2.31;72.13;99376.38;5076646;28;39011;-79
2022/02/13 05:56:28;;;;;;;4.73;4.07;;;;;;;-2.35;72.02;99366.91;5093084;28;41316;-78
2022/02/13 05:58:56;;;;;;;5.40;3.07;;;;;;;-2.37;72.52;99369.50;5094875;28;42712;-79
2022/02/13 06:01:23;;;;;;;4.63;3.33;;;;;;;-2.37;72.21;99368.63;5076657;28;42275;-79
2022/02/13 06:03:51;;;;;;;5.47;3.47;;;;;;;-2.38;72.45;99374.69;5093972;28;39933;-79
2022/02/13 06:06:19;;;;;;;4.73;2.60;;;;;;;-2.38;72.55;99369.50;5076415;28;43476;-78
2022/02/13 06:08:48;;;;;;;6.30;3.63;;;;;;;-2.38;72.81;99369.50;5093496;28;41830;-77
2022/02/13 06:11:15;;;;;;;6.67;3.47;;;;;;;-2.39;72.43;99370.34;5076494;28;43495;-78
2022/02/13 06:13:43;;;;;;;6.63;3.20;;;;;;;-2.40;72.35;99369.50;5093804;28;40817;-77
2022/02/13 06:16:10;;;;;;;8.13;3.23;;;;;;;-2.42;72.40;99360.00;5075648;28;43062;-79
2022/02/13 06:18:38;;;;;;;4.43;2.33;;;;;;;-2.43;72.43;99363.44;5093614;28;42887;-78
2022/02/13 06:21:06;;;;;;;5.17;3.63;;;;;;;-2.45;72.31;99359.97;5109958;28;42301;-79
2022/02/13 06:23:34;;;;;;;5.40;3.27;;;;;;;-2.47;72.44;99356.56;5093535;28;38831;-79
2022/02/13 06:26:03;;;;;;;3.93;3.10;;;;;;;-2.60;72.34;99343.63;5093000;28;41550;-77
2022/02/13 06:28:32;;;;;;;6.50;3.10;;;;;;;-2.51;72.63;99354.84;5110351;28;43352;-78
2022/02/13 06:30:59;;;;;;;9.67;3.90;;;;;;;-2.49;72.47;99353.97;5109929;28;43857;-77
2022/02/13 06:33:27;;;;;;;4.97;3.50;;;;;;;-2.47;72.55;99356.56;5094627;28;39909;-77
2022/02/13 06:35:55;;;;;;;7.20;3.53;;;;;;;-2.48;72.67;99360.88;5093739;28;41721;-77
2022/02/13 06:38:22;;;;;;;8.13;4.70;;;;;;;-2.54;72.71;99353.97;5093181;28;41541;-79
2022/02/13 06:40:50;;;;;;;6.50;4.03;;;;;;;-2.45;72.82;99365.16;5092863;28;43203;-77
2022/02/13 06:43:19;;;;;;;4.73;3.67;;;;;;;-2.44;72.78;99361.72;5094392;28;39863;-78
2022/02/13 06:45:46;;;;;;;6.40;3.07;;;;;;;-2.42;72.87;99362.56;5093606;28;41849;-78
2022/02/13 06:48:14;;;;;;;3.70;3.30;;;;;;;-2.39;72.96;99360.00;5109845;28;42972;-77
2022/02/13 06:50:41;;;;;;;5.33;3.67;;;;;;;-2.35;73.05;99356.53;5092670;28;41262;-77
2022/02/13 06:53:09;;;;;;;4.50;3.30;;;;;;;-2.31;73.03;99350.44;5139663;27;40687;-78
2022/02/13 06:55:36;;;;;;;3.63;3.17;;;;;;;-2.27;74.54;99344.38;5075208;28;41231;-79
2022/02/13 06:58:04;;;;;;;6.03;3.47;;;;;;;-2.24;75.37;99334.00;5092304;28;45009;-77
2022/02/13 07:00:33;;;;;;;4.40;3.67;;;;;;;-2.20;74.51;99346.06;5075533;28;41169;-79
2022/02/13 07:03:00;;;;;;;5.73;3.47;;;;;;;-2.17;74.20;99351.25;5109674;28;40892;-78
2022/02/13 07:05:28;;;;;;;7.30;3.37;;;;;;;-2.11;73.83;99351.25;5093598;28;41750;-79
2022/02/13 07:07:56;;;;;;;5.27;3.27;;;;;;;-2.08;73.65;99359.00;5108936;28;41944;-79
2022/02/13 07:10:23;;;;;;;4.50;3.60;;;;;;;-2.04;73.59;99365.91;5088082;28;42725;-77
2022/02/13 07:12:50;;;;;;;3.97;2.70;;;;;;;-2.07;73.47;99350.34;5091519;28;39904;-77
2022/02/13 07:15:18;;;;;;;3.47;2.47;;;;;;;-1.98;73.14;99368.47;5092092;28;41684;-77
2022/02/13 07:17:47;;;;;;;5.27;2.77;;;;;;;-1.94;73.14;99372.78;5054317;28;43963;-78
2022/02/13 07:20:16;;;;;;;2.80;2.30;;;;;;;-1.90;73.00;99366.72;5087765;28;40632;-78
2022/02/13 07:22:46;;;;;;;4.70;3.73;;;;;;;-1.85;72.96;99377.94;5091990;28;39799;-77
2022/02/13 07:25:14;;;;;;;6.60;3.37;;;;;;;-1.84;72.88;99358.03;5092245;28;41901;-79
2022/02/13 07:27:42;;;;;;;4.57;2.90;;;;;;;-1.95;72.92;99337.31;5090575;28;42097;-79
2022/02/13 07:30:13;;;;;;;5.03;4.03;;;;;;;-1.70;73.27;99365.75;5074572;28;42676;-78
2022/02/13 07:32:42;;;;;;;6.77;2.87;;;;;;;-1.64;73.26;99352.75;5074755;28;39295;-79
2022/02/13 07:35:11;;;;;;;5.73;3.77;;;;;;;-1.58;72.96;99363.09;5091395;28;41789;-78
2022/02/13 07:37:38;;;;;;;5.77;3.70;;;;;;;-1.66;72.87;99333.72;5091564;28;41714;-79
2022/02/13 07:40:07;;;;;;;8.17;3.37;;;;;;;-1.45;73.12;99349.16;5074402;28;43875;-77
2022/02/13 07:42:35;;;;;;;8.13;4.50;;;;;;;-1.33;73.08;99354.25;5074479;28;38880;-78
2022/02/13 07:45:03;;;;;;;4.80;3.37;;;;;;;-1.13;72.85;99352.41;5074283;28;41907;-79
2022/02/13 07:47:33;;;;;;;5.07;3.67;;;;;;;0.23;71.75;99332.75;5090925;28;42079;-77
2022/02/13 07:50:01;;;;;;;3.90;3.30;;;;;;;2.63;68.15;99358.84;5074190;28;41383;-79
2022/02/13 07:52:30;;;;;;;6.07;3.93;;;;;;;3.22;67.33;99357.44;5091273;28;40988;-78
2022/02/13 07:54:57;;;;;;;6.47;3.43;;;;;;;2.65;68.23;99349.22;5074006;28;40858;-77
2022/02/13 07:57:25;;;;;;;4.57;3.10;;;;;;;2.28;68.71;99347.41;5057541;28;41661;-79
2022/02/13 07:59:53;;;;;;;5.07;3.43;;;;;;;1.93;68.81;99336.84;5091348;28;43393;-79
2022/02/13 08:02:20;;;;;;;3.77;3.00;;;;;;;1.79;68.99;99345.81;5090966;28;40142;-80
2022/02/13 08:04:48;;;;;;;5.73;3.53;;;;;;;1.67;69.37;99346.03;5091825;28;41665;-79
2022/02/13 08:07:15;;;;;;;8.47;3.93;;;;;;;1.58;69.58;99338.38;5124974;27;42775;-78
2022/02/13 08:09:44;;;;;;;4.70;3.73;;;;;;;1.53;70.22;99328.91;5092247;28;41925;-77
2022/02/13 08:12:12;;;;;;;8.47;4.10;;;;;;;2.60;70.58;99338.03;5073628;28;39939;-79
2022/02/13 08:14:39;;;;;;;4.93;3.90;;;;;;;4.08;69.02;99337.69;5073554;28;40575;-79
2022/02/13 08:17:07;;;;;;;7.70;4.17;;;;;;;6.39;64.18;99351.00;5066352;28;42759;-80
2022/02/13 08:19:36;;;;;;;6.00;3.50;;;;;;;8.58;57.89;99378.69;5084645;28;43430;-76
2022/02/13 08:22:05;;;;;;;7.70;4.50;;;;;;;9.79;53.79;99386.91;5090523;28;39937;-78
2022/02/13 08:24:33;;;;;;;5.30;4.20;;;;;;;10.36;51.86;99373.34;5090738;28;41551;-76
2022/02/13 08:27:02;;;;;;;6.43;4.37;;;;;;;11.76;48.89;99399.91;5090528;28;41965;-77
2022/02/13 08:29:30;;;;;;;5.70;5.00;;;;;;;12.86;46.26;99387.84;5091876;28;43156;-77
2022/02/13 08:31:57;;;;;;;5.70;4.70;;;;;;;14.04;43.35;99376.53;5091561;28;40991;-77
2022/02/13 08:34:25;;;;;;;5.40;4.40;;;;;;;15.31;40.05;99411.94;5090046;28;40903;-78
2022/02/13 08:36:52;;;;;;;5.53;4.60;;;;;;;15.70;38.88;99416.16;5090579;28;42741;-78
2022/02/13 08:39:20;;;;;;;6.17;4.40;;;;;;;14.44;40.61;99364.00;5089952;28;43135;-76
2022/02/13 08:41:47;;;;;;;5.53;4.33;;;;;;;13.56;42.47;99396.66;5090548;28;40899;-76
2022/02/13 08:44:16;;;;;;;5.53;4.23;;;;;;;13.66;42.09;99397.75;5072816;28;40810;-77
2022/02/13 08:46:44;;;;;;;5.43;4.50;;;;;;;15.12;39.26;99419.56;5089052;28;43841;-77
2022/02/13 08:49:13;;;;;;;5.33;4.50;;;;;;;16.70;36.68;99417.41;5089520;28;20285;-77
2022/02/13 08:51:40;;;;;;;7.00;5.20;;;;;;;17.66;35.75;99431.09;5089769;28;40082;-77
2022/02/13 08:54:08;;;;;;;5.30;4.67;;;;;;;19.28;33.19;99426.94;5072517;28;41107;-77
2022/02/13 08:56:35;;;;;;;7.33;5.07;;;;;;;20.99;30.69;99436.97;5071947;28;41789;-77
2022/02/13 08:59:03;;;;;;;7.00;5.80;;;;;;;21.38;30.03;99458.38;5090099;28;43020;-77
2022/02/13 09:01:32;;;;;;;6.97;5.57;;;;;;;19.51;30.78;99460.66;5072613;28;39543;-78
2022/02/13 09:03:59;;;;;;;8.40;6.07;;;;;;;17.57;34.07;99430.84;5089520;28;40365;-77
2022/02/13 09:06:27;;;;;;;6.77;5.73;;;;;;;15.99;36.23;99405.97;5072344;28;41780;-78
2022/02/13 09:08:55;;;;;;;8.07;5.70;;;;;;;14.54;38.22;99357.06;5123260;27;42928;-77
2022/02/13 09:11:22;;;;;;;6.37;4.80;;;;;;;14.73;38.36;99386.78;5089735;28;40056;-77
2022/02/13 09:13:53;;;;;;;7.40;4.83;;;;;;;15.76;35.95;99399.69;5089394;28;41738;-78
2022/02/13 09:16:20;;;;;;;5.87;4.13;;;;;;;16.67;34.57;99398.97;5080553;28;42650;-78
2022/02/13 09:18:49;;;;;;;5.87;4.20;;;;;;;16.35;34.63;99396.09;5089396;28;42920;-77
2022/02/13 09:21:17;;;;;;;4.03;3.23;;;;;;;16.38;34.43;99395.84;5088763;28;41357;-77
2022/02/13 09:23:44;;;;;;;5.00;3.57;;;;;;;15.18;35.50;99365.75;5089865;28;41740;-78
2022/02/13 09:26:12;;;;;;;4.10;3.63;;;;;;;14.18;36.34;99370.25;5072326;28;43975;-78
2022/02/13 09:28:39;;;;;;;6.03;3.63;;;;;;;13.80;37.90;99368.41;5090083;28;42412;-78
2022/02/13 09:31:08;;;;;;;5.57;4.23;;;;;;;13.97;38.37;99354.78;5072691;28;40082;-79
2022/02/13 09:33:35;;;;;;;7.23;3.90;;;;;;;13.94;39.03;99355.00;5072814;28;43449;-78
2022/02/13 09:36:05;;;;;;;4.67;4.13;;;;;;;14.87;37.67;99360.94;5089679;28;44078;-80
2022/02/13 09:38:33;;;;;;;5.03;4.20;;;;;;;15.66;36.67;99363.09;5086487;28;42230;-79
2022/02/13 09:41:01;;;;;;;5.53;4.20;;;;;;;15.84;36.33;99337.66;5072660;28;40520;-79
2022/02/13 09:43:29;;;;;;;5.60;3.67;;;;;;;16.34;35.53;99347.13;5089955;28;41744;-80
2022/02/13 09:45:58;;;;;;;5.00;4.10;;;;;;;16.63;33.96;99371.59;5089265;28;43776;-80
2022/02/13 09:48:26;;;;;;;6.10;3.60;;;;;;;15.75;35.69;99349.06;5086868;28;43415;-80
2022/02/13 09:50:58;;;;;;;3.97;3.10;;;;;;;15.02;36.44;99343.81;5091562;28;40892;-79
2022/02/13 09:53:34;;;;;;;4.10;3.70;;;;;;;14.43;37.52;99334.78;5076588;28;40832;-79
2022/02/13 09:56:02;;;;;;;5.33;3.57;;;;;;;13.97;38.40;99333.47;5089799;28;43754;-79
2022/02/13 09:58:30;;;;;;;4.77;3.10;;;;;;;13.71;38.41;99313.13;5093153;28;42686;-79
2022/02/13 10:00:59;;;;;;;5.00;3.43;;;;;;;13.78;39.36;99317.06;5076102;28;41715;-79
2022/02/13 10:03:28;;;;;;;6.20;4.73;;;;;;;13.76;39.76;99323.44;5060002;28;41101;-80
2022/02/13 10:05:58;;;;;;;5.63;3.47;;;;;;;13.36;39.26;99282.69;5092015;28;43142;-80
2022/02/13 10:08:34;;;;;;;5.17;3.77;;;;;;;13.69;39.66;99304.38;5075909;28;43631;-79
2022/02/13 10:11:13;;;;;;;3.77;3.40;;;;;;;14.83;37.66;99296.31;5076072;28;39277;-80
2022/02/13 10:13:53;;;;;;;5.63;3.80;;;;;;;16.51;35.12;99316.38;5090186;28;42000;-80
2022/02/13 10:16:23;;;;;;;4.50;3.10;;;;;;;17.85;33.25;99332.13;5089961;28;42676;-80
2022/02/13 10:18:54;;;;;;;3.63;2.93;;;;;;;18.83;31.95;99344.09;5093242;28;43122;-80
2022/02/13 10:21:38;;;;;;;8.00;3.70;;;;;;;19.68;30.21;99348.94;5075397;28;38986;-80
2022/02/13 10:24:26;;;;;;;4.40;2.93;;;;;;;19.33;30.91;99344.94;5088879;28;42085;-81
2022/02/13 10:27:09;;;;;;;4.10;2.97;;;;;;;20.58;30.84;99346.69;5075764;28;43511;-81
2022/02/13 10:29:39;;;;;;;3.40;3.10;;;;;;;21.52;28.08;99336.56;5083563;28;42144;-82
2022/02/13 10:32:13;;;;;;;3.37;2.87;;;;;;;21.44;27.85;99347.25;5075659;28;40282;-82
2022/02/13 10:34:56;;;;;;;6.07;3.37;;;;;;;20.51;29.94;99318.69;5075440;28;41954;-81
2022/02/13 10:37:44;;;;;;;4.50;3.20;;;;;;;20.86;29.04;99320.66;5092056;28;42745;-82
2022/02/13 10:40:16;;;;;;;4.30;3.17;;;;;;;21.88;28.14;99313.97;5092359;28;42222;-82
2022/02/13 10:42:44;;;;;;;5.27;3.60;;;;;;;22.85;27.03;99323.75;5092484;28;40302;-82
2022/02/13 10:45:23;;;;;;;5.67;3.60;;;;;;;23.77;26.43;99322.78;5075427;28;42511;-82
2022/02/13 10:47:53;;;;;;;4.50;3.60;;;;;;;25.15;24.92;99341.50;5080480;28;43929;-84
2022/02/13 10:50:21;;;;;;;3.40;3.10;;;;;;;26.47;23.51;99336.63;5070114;28;42264;-83
2022/02/13 10:52:52;;;;;;;3.53;2.90;;;;;;;27.40;22.86;99325.97;5091716;28;40363;-84
2022/02/13 10:55:21;;;;;;;5.10;3.87;;;;;;;28.30;22.42;99311.81;5074368;28;41744;-84
2022/02/13 10:57:49;;;;;;;3.60;3.30;;;;;;;29.57;21.12;99334.91;5088995;28;41603;-84
2022/02/13 11:00:18;;;;;;;3.60;3.10;;;;;;;30.33;20.34;99315.47;5072863;28;43750;-83
2022/02/13 11:02:47;;;;;;;3.78;3.47;;;;;;;31.20;19.55;99334.25;5092167;28;39822;-83
2022/02/13 11:05:16;;;;;;;3.78;3.38;;;;;;;32.54;18.81;99328.50;5092054;28;43262;-86
2022/02/13 11:07:49;;;;;;;3.20;2.55;;;;;;;33.61;16.84;99320.72;5075149;28;45115;-85
2022/02/13 11:10:21;;;;;;;4.60;3.03;;;;;;;34.62;16.02;99308.72;5074772;28;40931;-86
2022/02/13 11:12:53;;;;;;;2.97;2.67;;;;;;;35.52;15.64;99318.13;5075348;28;40508;-86
2022/02/13 11:15:22;;;;;;;3.20;2.70;;;;;;;36.30;14.90;99311.00;5074798;28;42621;-86
2022/02/13 11:17:52;;;;;;;2.70;2.50;;;;;;;37.00;14.90;99267.00;5092032;28;42885;-87
2022/02/13 11:20:20;;;;;;;2.67;2.47;;;;;;;37.76;13.91;99286.41;5092036;28;43059;-84
2022/02/13 11:22:53;;;;;;;2.92;2.60;;;;;;;37.48;14.62;99272.81;5074850;28;40094;-86
2022/02/13 11:25:55;;;;;;;3.28;2.97;;;;;;;36.54;15.31;99262.78;5074827;28;41990;-85
2022/02/13 11:28:27;;;;;;;3.15;2.75;;;;;;;36.92;15.40;99258.34;5074252;28;41953;-85
2022/02/13 11:30:56;;;;;;;2.88;2.35;;;;;;;36.36;14.75;99243.75;5074956;28;41465;-86
2022/02/13 11:33:44;;;;;;;3.35;3.05;;;;;;;34.71;16.53;99222.81;5061093;28;38024;-85
2022/02/13 11:36:13;;;;;;;5.53;2.93;;;;;;;32.85;17.38;99220.56;5074746;28;42889;-85
2022/02/13 11:39:03;;;;;;;4.53;2.55;;;;;;;31.87;18.65;99198.59;5074224;28;43813;-86
2022/02/13 11:42:07;;;;;;;3.85;3.45;;;;;;;32.65;16.70;99219.94;5075663;28;42036;-87